Time;durP1;ratioP1;P1;durP2;ratioP2;P2;SDS_P1;SDS_P2;PMS_P1;PMS_P2;Temp;Humidity;BMP_temperature;BMP_pressure;BME280_temperature;BME280_humidity;BME280_pressure;Samples;Min_cycle;Max_cycle;Signal;HPM_P1;HPM_P2
2021/01/04 00:00:47;;;;;;;10.02;3.50;;;4.00;99.90;;;;;;5009117;28;20044;-68
2021/01/04 00:03:35;;;;;;;8.10;3.30;;;4.10;99.90;;;;;;5023868;28;20414;-60
2021/01/04 00:06:17;;;;;;;7.75;3.72;;;4.10;99.90;;;;;;5020375;28;20037;-60
2021/01/04 00:09:15;;;;;;;5.75;2.95;;;4.10;99.90;;;;;;5029997;28;20056;-60
2021/01/04 00:11:52;;;;;;;7.28;3.30;;;4.10;99.90;;;;;;5021866;28;20036;-60
2021/01/04 00:14:45;;;;;;;8.50;3.03;;;4.10;99.90;;;;;;5023729;28;20553;-62
2021/01/04 00:17:48;;;;;;;7.57;2.72;;;4.10;99.90;;;;;;5027234;28;20026;-62
2021/01/04 00:20:27;;;;;;;7.70;3.22;;;4.10;99.90;;;;;;5022998;28;20485;-62
2021/01/04 00:23:19;;;;;;;7.85;3.10;;;4.20;99.90;;;;;;5027742;28;20444;-61
2021/01/04 00:25:55;;;;;;;9.20;3.30;;;4.20;99.90;;;;;;5025533;28;20111;-60
2021/01/04 00:28:25;;;;;;;8.30;3.65;;;4.20;99.90;;;;;;5022111;28;20038;-62
2021/01/04 00:31:05;;;;;;;7.00;1.75;;;4.10;99.90;;;;;;5026481;28;20030;-64
2021/01/04 00:33:48;;;;;;;5.78;2.53;;;4.20;99.90;;;;;;5027689;28;20033;-61
2021/01/04 00:36:22;;;;;;;7.80;3.15;;;4.20;99.90;;;;;;5025249;28;20038;-63
2021/01/04 00:39:07;;;;;;;6.95;3.67;;;4.20;99.90;;;;;;5023244;28;20114;-60
2021/01/04 00:42:03;;;;;;;6.07;3.05;;;4.20;99.90;;;;;;5026649;28;20052;-63
2021/01/04 00:44:32;;;;;;;5.00;2.67;;;4.10;99.90;;;;;;5023116;28;20034;-61
2021/01/04 00:47:15;;;;;;;5.55;2.95;;;4.20;99.90;;;;;;5024320;28;20087;-63
2021/01/04 00:49:46;;;;;;;9.05;3.15;;;4.20;99.90;;;;;;5024592;28;20033;-61
2021/01/04 00:52:20;;;;;;;6.05;2.80;;;4.10;99.90;;;;;;5023864;28;20042;-60
2021/01/04 00:55:02;;;;;;;6.57;3.35;;;4.10;99.90;;;;;;5023121;28;20738;-60
2021/01/04 00:57:36;;;;;;;12.20;3.45;;;4.10;99.90;;;;;;5016094;28;20044;-61
2021/01/04 01:00:11;;;;;;;7.32;3.05;;;4.10;99.90;;;;;;5028448;28;20045;-61
2021/01/04 01:03:13;;;;;;;6.90;2.80;;;4.00;99.90;;;;;;5018787;28;20489;-62
2021/01/04 01:06:07;;;;;;;10.00;3.53;;;4.00;99.90;;;;;;5018060;28;20045;-62
2021/01/04 01:08:36;;;;;;;6.32;2.63;;;4.00;99.90;;;;;;4992036;28;20087;-60
2021/01/04 01:11:06;;;;;;;7.95;3.72;;;4.00;99.90;;;;;;5016154;28;20483;-59
2021/01/04 01:13:54;;;;;;;7.13;3.00;;;4.00;99.90;;;;;;5019041;28;20040;-59
2021/01/04 01:16:23;;;;;;;5.65;2.70;;;4.00;99.90;;;;;;5016793;28;20108;-59
2021/01/04 01:18:57;;;;;;;6.60;2.80;;;4.00;99.90;;;;;;5018298;28;20045;-59
2021/01/04 01:21:23;;;;;;;5.82;2.22;;;3.90;99.90;;;;;;5016788;28;20491;-59
2021/01/04 01:23:48;;;;;;;9.65;3.20;;;4.00;99.90;;;;;;5019806;28;20117;-60
2021/01/04 01:26:54;;;;;;;3.80;2.30;;;3.90;99.90;;;;;;5017558;28;20046;-59
2021/01/04 01:29:41;;;;;;;4.88;2.72;;;3.90;99.90;;;;;;5016361;28;20049;-60
2021/01/04 01:32:45;;;;;;;6.10;2.95;;;3.90;99.90;;;;;;5020450;28;20152;-60
2021/01/04 01:35:32;;;;;;;5.70;2.63;;;3.90;99.90;;;;;;5020366;28;20414;-59
2021/01/04 01:38:04;;;;;;;8.07;2.90;;;4.00;99.90;;;;;;5020033;28;20657;-60
2021/01/04 01:40:48;;;;;;;6.90;3.63;;;3.90;99.90;;;;;;5020780;28;20041;-60
2021/01/04 01:43:48;;;;;;;7.80;2.85;;;3.90;99.90;;;;;;5019207;28;20132;-59
2021/01/04 01:47:15;;;;;;;8.23;2.73;;;3.90;99.90;;;;;;5019157;28;20577;-59
2021/01/04 01:50:34;;;;;;;7.13;2.97;;;3.80;99.90;;;;;;4977393;28;20403;-60
2021/01/04 01:53:27;;;;;;;6.07;2.80;;;3.90;99.90;;;;;;4997515;28;20037;-60
2021/01/04 01:56:15;;;;;;;6.57;2.83;;;3.90;99.90;;;;;;5016029;28;20042;-60
2021/01/04 01:58:47;;;;;;;5.05;2.47;;;3.80;99.90;;;;;;5016985;28;20037;-60
2021/01/04 02:01:20;;;;;;;6.70;3.08;;;3.80;99.90;;;;;;5019206;28;20057;-59
2021/01/04 02:04:09;;;;;;;6.53;3.17;;;3.80;99.90;;;;;;5016349;28;20380;-60
2021/01/04 02:06:53;;;;;;;5.15;2.97;;;3.80;99.90;;;;;;5017988;28;20721;-60
2021/01/04 02:09:27;;;;;;;7.28;3.38;;;3.80;99.90;;;;;;5037597;28;20037;-60
2021/01/04 02:12:09;;;;;;;6.32;2.78;;;3.80;99.90;;;;;;5024493;28;20029;-59
2021/01/04 02:15:19;;;;;;;5.50;2.70;;;3.80;99.90;;;;;;5022055;28;20087;-60
2021/01/04 02:17:56;;;;;;;4.97;2.80;;;3.80;99.90;;;;;;4995593;28;20448;-60
2021/01/04 02:20:40;;;;;;;4.13;2.10;;;3.80;99.90;;;;;;5018171;28;20497;-62
2021/01/04 02:23:28;;;;;;;6.32;2.70;;;3.80;99.90;;;;;;5022026;28;20560;-60
2021/01/04 02:25:57;;;;;;;5.68;2.75;;;3.80;99.90;;;;;;5024171;28;20041;-61
2021/01/04 02:28:27;;;;;;;6.20;2.90;;;3.80;99.90;;;;;;5023132;28;20041;-59
2021/01/04 02:30:53;;;;;;;5.35;3.03;;;3.80;99.90;;;;;;5019765;28;20084;-59
2021/01/04 02:33:19;;;;;;;8.13;3.28;;;3.70;99.90;;;;;;5023264;28;20083;-60
2021/01/04 02:35:47;;;;;;;7.32;2.55;;;3.80;99.90;;;;;;5019200;28;20109;-60
2021/01/04 02:38:24;;;;;;;5.68;3.13;;;3.80;99.90;;;;;;5022791;28;20041;-59
2021/01/04 02:40:50;;;;;;;7.43;3.10;;;3.80;99.90;;;;;;5022582;28;20044;-60
2021/01/04 02:43:16;;;;;;;6.78;3.00;;;3.80;99.90;;;;;;5023072;28;20037;-59
2021/01/04 02:45:41;;;;;;;5.88;2.78;;;3.80;99.90;;;;;;5019400;28;20041;-61
2021/01/04 02:48:22;;;;;;;8.55;2.88;;;3.80;99.90;;;;;;5021807;28;20133;-60
2021/01/04 02:50:53;;;;;;;8.32;3.03;;;3.80;99.90;;;;;;5023081;28;20461;-60
2021/01/04 02:53:56;;;;;;;5.53;2.60;;;3.70;99.90;;;;;;5023347;28;20042;-60
2021/01/04 02:56:43;;;;;;;7.40;2.75;;;3.70;99.90;;;;;;5019043;28;20045;-61
2021/01/04 02:59:34;;;;;;;5.07;2.70;;;3.70;99.90;;;;;;5018722;28;20038;-60
2021/01/04 03:02:08;;;;;;;6.68;3.17;;;3.70;99.90;;;;;;5021645;28;20041;-60
2021/01/04 03:04:36;;;;;;;4.78;2.70;;;3.70;99.90;;;;;;5019245;28;20053;-60
2021/01/04 03:07:19;;;;;;;5.43;2.53;;;3.70;99.90;;;;;;5020729;28;20112;-60
2021/01/04 03:09:47;;;;;;;5.32;2.60;;;3.80;99.90;;;;;;5019043;28;20552;-59
2021/01/04 03:12:32;;;;;;;13.35;3.28;;;3.70;99.90;;;;;;5022159;28;20030;-60
2021/01/04 03:15:08;;;;;;;6.30;3.28;;;3.70;99.90;;;;;;5016219;28;20034;-59
2021/01/04 03:18:15;;;;;;;7.22;3.03;;;3.80;99.90;;;;;;5019840;28;20035;-59
2021/01/04 03:20:41;;;;;;;6.28;3.05;;;3.80;99.90;;;;;;5022190;28;20052;-59
2021/01/04 03:23:06;;;;;;;7.45;3.78;;;3.80;99.90;;;;;;5020222;28;20041;-61
2021/01/04 03:25:56;;;;;;;8.63;3.13;;;3.80;99.90;;;;;;5019596;28;20048;-60
2021/01/04 03:28:29;;;;;;;5.82;2.55;;;3.80;99.90;;;;;;5022492;28;20037;-60
2021/01/04 03:30:55;;;;;;;10.30;3.88;;;3.80;99.90;;;;;;5019867;28;20052;-61
2021/01/04 03:33:21;;;;;;;7.90;3.05;;;3.80;99.90;;;;;;5020990;28;20513;-60
2021/01/04 03:35:47;;;;;;;6.70;4.15;;;3.80;99.90;;;;;;5018518;28;20038;-60
2021/01/04 03:38:14;;;;;;;6.07;3.05;;;3.80;99.90;;;;;;5020774;28;20079;-62
2021/01/04 03:40:39;;;;;;;7.22;3.17;;;3.70;99.90;;;;;;5018487;28;21143;-60
2021/01/04 03:43:05;;;;;;;4.60;2.63;;;3.70;99.90;;;;;;5021547;28;20613;-59
2021/01/04 03:45:31;;;;;;;8.50;3.33;;;3.80;99.90;;;;;;5019186;28;20506;-59
2021/01/04 03:47:58;;;;;;;6.45;3.15;;;3.80;99.90;;;;;;5020291;28;20041;-60
2021/01/04 03:50:23;;;;;;;6.20;3.22;;;3.80;99.90;;;;;;5020490;28;20414;-61
2021/01/04 03:52:49;;;;;;;8.70;3.75;;;3.80;99.90;;;;;;5019232;28;20034;-60
2021/01/04 03:55:18;;;;;;;6.55;3.20;;;3.80;99.90;;;;;;5021989;28;20038;-59
2021/01/04 03:57:45;;;;;;;7.65;2.83;;;3.80;99.90;;;;;;5022011;28;21778;-60
2021/01/04 04:00:14;;;;;;;6.80;2.97;;;3.80;99.90;;;;;;5018176;28;20046;-60
2021/01/04 04:02:41;;;;;;;10.68;4.28;;;3.80;99.90;;;;;;5020988;28;20636;-59
2021/01/04 04:05:07;;;;;;;4.90;2.50;;;3.80;99.90;;;;;;5018501;28;20052;-59
2021/01/04 04:07:34;;;;;;;6.57;2.58;;;3.80;99.90;;;;;;5019776;28;20414;-60
2021/01/04 04:10:00;;;;;;;6.28;3.00;;;3.80;99.90;;;;;;5019253;28;20033;-60
2021/01/04 04:12:26;;;;;;;4.18;2.72;;;3.90;99.90;;;;;;5018113;28;20060;-60
2021/01/04 04:14:51;;;;;;;6.78;2.67;;;3.80;99.90;;;;;;5018404;28;20088;-59
2021/01/04 04:17:18;;;;;;;6.93;2.65;;;3.90;99.90;;;;;;5020946;28;20115;-60
2021/01/04 04:19:48;;;;;;;6.32;2.63;;;3.80;99.90;;;;;;5017235;28;20570;-60
2021/01/04 04:22:14;;;;;;;7.45;3.20;;;3.80;99.90;;;;;;5021677;28;20125;-60
2021/01/04 04:24:41;;;;;;;5.05;2.60;;;3.80;99.90;;;;;;5016844;28;20026;-60
2021/01/04 04:27:07;;;;;;;6.68;3.28;;;3.90;99.90;;;;;;5054253;22;20056;-66
2021/01/04 04:29:33;;;;;;;7.53;3.65;;;3.80;99.90;;;;;;5036878;28;20099;-67
2021/01/04 04:31:58;;;;;;;4.20;2.17;;;3.90;99.90;;;;;;5038090;28;20056;-66
2021/01/04 04:34:24;;;;;;;5.68;3.40;;;3.80;99.90;;;;;;5039898;28;20073;-67
2021/01/04 04:36:49;;;;;;;5.35;2.47;;;3.90;99.90;;;;;;5028447;28;20040;-67
2021/01/04 04:39:15;;;;;;;6.13;2.90;;;3.90;99.90;;;;;;5023630;28;20037;-66
2021/01/04 04:41:47;;;;;;;8.75;2.72;;;3.80;99.90;;;;;;5024445;28;20030;-66
2021/01/04 04:44:49;;;;;;;6.53;2.53;;;3.90;99.90;;;;;;5016649;28;20048;-65
2021/01/04 04:47:35;;;;;;;9.60;3.50;;;3.90;99.90;;;;;;5021212;28;20036;-66
2021/01/04 04:50:09;;;;;;;7.05;2.67;;;3.90;99.90;;;;;;5018722;28;20125;-66
2021/01/04 04:52:47;;;;;;;7.18;2.97;;;4.00;99.90;;;;;;5017766;28;20493;-66
2021/01/04 04:55:40;;;;;;;6.18;2.42;;;3.90;99.90;;;;;;5017120;28;20042;-67
2021/01/04 04:58:27;;;;;;;4.95;2.78;;;3.80;99.90;;;;;;5017082;28;20091;-66
2021/01/04 05:01:03;;;;;;;6.72;2.63;;;3.90;99.90;;;;;;5017727;28;20075;-67
2021/01/04 05:03:53;;;;;;;4.80;2.38;;;3.90;99.90;;;;;;5018265;28;20154;-66
2021/01/04 05:06:46;;;;;;;3.70;2.40;;;3.90;99.90;;;;;;5017785;28;20521;-66
2021/01/04 05:09:26;;;;;;;6.32;2.10;;;3.90;99.90;;;;;;5015536;28;20042;-66
2021/01/04 05:12:13;;;;;;;4.70;2.60;;;3.90;99.90;;;;;;5019223;28;20037;-67
2021/01/04 05:14:56;;;;;;;5.78;2.45;;;3.90;99.90;;;;;;5019572;28;20287;-66
2021/01/04 05:17:28;;;;;;;4.32;2.25;;;3.90;99.90;;;;;;5018438;28;20127;-67
2021/01/04 05:20:05;;;;;;;6.88;2.53;;;3.90;99.90;;;;;;5018649;28;20421;-67
2021/01/04 05:23:19;;;;;;;10.10;2.45;;;3.90;99.90;;;;;;5019360;28;20093;-66
2021/01/04 05:25:49;;;;;;;6.25;2.60;;;3.90;99.90;;;;;;5015646;28;20040;-66
2021/01/04 05:28:52;;;;;;;4.03;2.08;;;3.90;99.90;;;;;;5016117;28;20041;-66
2021/01/04 05:31:26;;;;;;;5.93;2.47;;;3.90;99.90;;;;;;5017657;28;20057;-67
2021/01/04 05:34:07;;;;;;;7.15;2.70;;;3.80;99.90;;;;;;5016574;28;20033;-67
2021/01/04 05:36:47;;;;;;;7.78;2.65;;;3.90;99.90;;;;;;5023349;28;20121;-67
2021/01/04 05:39:40;;;;;;;3.10;1.52;;;3.90;99.90;;;;;;5019563;28;20072;-67
2021/01/04 05:42:32;;;;;;;6.00;2.65;;;3.90;99.90;;;;;;5023281;28;20510;-67
2021/01/04 05:45:14;;;;;;;6.00;2.58;;;3.90;99.90;;;;;;5023473;28;20096;-67
2021/01/04 05:47:59;;;;;;;10.95;3.72;;;3.90;99.90;;;;;;5024887;28;20048;-66
2021/01/04 05:50:36;;;;;;;5.90;2.80;;;3.90;99.90;;;;;;5036786;28;20078;-67
2021/01/04 05:53:01;;;;;;;8.38;3.28;;;4.00;99.90;;;;;;5041308;28;20037;-66
2021/01/04 05:55:27;;;;;;;5.95;2.90;;;4.00;99.90;;;;;;5040654;28;20504;-66
2021/01/04 05:57:54;;;;;;;6.35;2.90;;;4.00;99.90;;;;;;5028958;28;20033;-65
2021/01/04 06:00:35;;;;;;;5.25;2.65;;;4.00;99.90;;;;;;5028429;28;20040;-66
2021/01/04 06:03:18;;;;;;;8.60;2.97;;;3.90;99.90;;;;;;5032072;28;20063;-66
2021/01/04 06:05:44;;;;;;;10.45;3.55;;;3.90;99.90;;;;;;5026160;28;20109;-66
2021/01/04 06:08:25;;;;;;;9.57;3.42;;;4.00;99.90;;;;;;5028137;28;20046;-65
2021/01/04 06:10:53;;;;;;;;;;;3.90;99.90;;;;;;5024360;28;20033;-67
2021/01/04 06:13:20;;;;;;;6.68;2.42;;;3.90;99.90;;;;;;5027353;28;19913;-66
2021/01/04 06:15:47;;;;;;;5.90;2.70;;;3.90;99.90;;;;;;5025855;28;20093;-67
2021/01/04 06:18:33;;;;;;;6.85;2.53;;;3.90;99.90;;;;;;5026620;28;20042;-65
2021/01/04 06:21:22;;;;;;;8.27;2.80;;;3.90;99.90;;;;;;5024470;28;20033;-66
2021/01/04 06:23:50;;;;;;;12.07;3.67;;;4.00;99.90;;;;;;5026055;28;20034;-66
2021/01/04 06:26:22;;;;;;;11.90;3.55;;;4.00;99.90;;;;;;5027241;28;20047;-66
2021/01/04 06:28:56;;;;;;;9.23;2.90;;;4.00;99.90;;;;;;5028717;28;20084;-66
2021/01/04 06:31:31;;;;;;;6.18;2.60;;;4.00;99.90;;;;;;5024631;28;20044;-66
2021/01/04 06:34:00;;;;;;;8.60;3.20;;;4.00;99.90;;;;;;5023896;28;20065;-66
2021/01/04 06:36:27;;;;;;;6.40;2.67;;;4.00;99.90;;;;;;5028472;28;20044;-66
2021/01/04 06:38:53;;;;;;;8.40;3.20;;;3.90;99.90;;;;;;5027409;28;20037;-67
2021/01/04 06:41:32;;;;;;;8.07;3.13;;;3.90;99.90;;;;;;5024985;28;20395;-67
2021/01/04 06:44:16;;;;;;;8.95;2.78;;;4.00;99.90;;;;;;5027010;28;20091;-65
2021/01/04 06:47:17;;;;;;;10.27;3.28;;;3.90;99.90;;;;;;5025170;28;20037;-66
2021/01/04 06:50:01;;;;;;;;;;;4.00;99.90;;;;;;5026423;28;20043;-65
2021/01/04 06:52:39;;;;;;;5.97;3.70;;;4.00;99.90;;;;;;5028480;28;19979;-65
2021/01/04 06:55:26;;;;;;;7.00;2.80;;;4.00;99.90;;;;;;5023470;28;20390;-66
2021/01/04 06:58:24;;;;;;;8.77;2.33;;;4.00;99.90;;;;;;5025943;28;20116;-66
2021/01/04 07:01:02;;;;;;;10.00;3.05;;;4.00;99.90;;;;;;5025748;28;20041;-66
2021/01/04 07:03:52;;;;;;;6.55;3.08;;;3.90;99.90;;;;;;5024444;28;20033;-67
2021/01/04 07:06:36;;;;;;;;;;;3.90;99.90;;;;;;5024396;28;20045;-66
2021/01/04 07:09:24;;;;;;;5.47;2.10;;;3.90;99.90;;;;;;5027515;28;19921;-66
2021/01/04 07:12:10;;;;;;;7.72;2.72;;;3.90;99.90;;;;;;5027116;28;20038;-65
2021/01/04 07:14:44;;;;;;;7.45;3.55;;;3.90;99.90;;;;;;5028979;28;20534;-65
2021/01/04 07:17:44;;;;;;;5.75;2.60;;;3.90;99.90;;;;;;5024465;28;20612;-66
2021/01/04 07:20:31;;;;;;;7.45;3.03;;;4.00;99.90;;;;;;5024446;28;20049;-66
2021/01/04 07:23:25;;;;;;;9.70;3.30;;;3.90;99.90;;;;;;5023727;28;20033;-65
2021/01/04 07:26:19;;;;;;;4.57;3.05;;;3.90;99.90;;;;;;5013075;28;20123;-66
2021/01/04 07:29:22;;;;;;;8.27;3.40;;;3.90;99.90;;;;;;5020919;28;20041;-66
2021/01/04 07:32:07;;;;;;;4.88;2.72;;;3.90;99.90;;;;;;5026404;28;20041;-66
2021/01/04 07:35:00;;;;;;;6.38;2.90;;;3.90;99.90;;;;;;5025706;28;20097;-65
2021/01/04 07:38:06;;;;;;;6.75;2.80;;;3.90;99.90;;;;;;5033337;28;20038;-66
2021/01/04 07:40:55;;;;;;;7.30;2.38;;;3.90;99.90;;;;;;5007556;28;20064;-66
2021/01/04 07:43:51;;;;;;;4.10;2.17;;;3.90;99.90;;;;;;5022834;28;20509;-66
2021/01/04 07:46:54;;;;;;;5.75;2.60;;;3.90;99.90;;;;;;5023456;28;20396;-65
2021/01/04 07:49:28;;;;;;;5.38;2.30;;;3.90;99.90;;;;;;5024190;28;20056;-65
2021/01/04 07:52:08;;;;;;;4.55;2.38;;;3.90;99.90;;;;;;5023751;28;20033;-66
2021/01/04 07:55:06;;;;;;;7.55;3.15;;;3.90;99.90;;;;;;5026264;28;20124;-66
2021/01/04 07:57:57;;;;;;;7.35;3.03;;;3.90;99.90;;;;;;5024919;28;20491;-65
2021/01/04 08:00:26;;;;;;;7.63;3.00;;;3.90;99.90;;;;;;5024253;28;20056;-66
2021/01/04 08:03:00;;;;;;;5.40;2.58;;;4.00;99.90;;;;;;5025639;28;20655;-66
2021/01/04 08:06:03;;;;;;;8.13;3.47;;;4.00;99.90;;;;;;5020876;28;20084;-66
2021/01/04 08:08:35;;;;;;;8.43;3.40;;;4.10;99.90;;;;;;5027013;28;20025;-66
2021/01/04 08:11:16;;;;;;;5.20;3.03;;;4.10;99.90;;;;;;5026296;28;20048;-66
2021/01/04 08:14:00;;;;;;;7.72;3.65;;;4.00;99.90;;;;;;5022979;28;20048;-65
2021/01/04 08:16:38;;;;;;;10.88;2.78;;;4.00;99.90;;;;;;5023559;28;20033;-65
2021/01/04 08:19:07;;;;;;;5.45;2.90;;;4.00;99.90;;;;;;5038266;28;20764;-66
2021/01/04 08:22:15;;;;;;;8.88;3.20;;;4.10;99.90;;;;;;5027817;28;20034;-65
2021/01/04 08:24:46;;;;;;;6.50;2.90;;;4.10;99.90;;;;;;4946088;28;20091;-67
2021/01/04 08:27:21;;;;;;;7.60;3.20;;;4.20;99.90;;;;;;5005398;28;20076;-65
2021/01/04 08:30:10;;;;;;;7.68;2.92;;;4.20;99.90;;;;;;5026470;28;20520;-66
2021/01/04 08:32:51;;;;;;;7.47;2.83;;;4.10;99.90;;;;;;5026688;28;20041;-66
2021/01/04 08:35:38;;;;;;;5.32;2.53;;;4.20;99.90;;;;;;5020206;28;20044;-64
2021/01/04 08:38:27;;;;;;;4.15;2.08;;;4.20;99.90;;;;;;5022934;28;20083;-66
2021/01/04 08:41:07;;;;;;;4.75;2.70;;;4.20;99.90;;;;;;5023034;28;20045;-66
2021/01/04 08:43:41;;;;;;;8.07;3.03;;;4.20;99.90;;;;;;5020440;28;20040;-66
2021/01/04 08:46:27;;;;;;;5.97;3.15;;;4.20;99.90;;;;;;5022282;28;20452;-66
2021/01/04 08:48:55;;;;;;;7.03;3.47;;;4.20;99.90;;;;;;5019320;28;20043;-65
2021/01/04 08:51:26;;;;;;;9.60;3.35;;;4.20;99.90;;;;;;5017194;28;20034;-65
2021/01/04 08:54:17;;;;;;;5.88;3.22;;;4.20;99.90;;;;;;5022533;28;20042;-66
2021/01/04 08:56:48;;;;;;;6.68;2.80;;;4.20;99.90;;;;;;5021107;28;20036;-65
2021/01/04 08:59:18;;;;;;;6.53;3.05;;;4.30;99.90;;;;;;5023156;28;20063;-66
2021/01/04 09:01:52;;;;;;;11.13;2.95;;;4.30;99.90;;;;;;5022327;28;20299;-65
2021/01/04 09:04:30;;;;;;;8.35;2.83;;;4.30;99.90;;;;;;5020852;28;20046;-65
2021/01/04 09:07:18;;;;;;;6.88;2.72;;;4.30;99.90;;;;;;5021345;28;20030;-65
2021/01/04 09:10:17;;;;;;;5.68;2.95;;;4.30;99.90;;;;;;5021933;28;20636;-66
2021/01/04 09:12:46;;;;;;;6.75;2.92;;;4.30;99.90;;;;;;5021423;28;20098;-66
2021/01/04 09:15:21;;;;;;;5.35;2.70;;;4.30;99.90;;;;;;5019524;28;20557;-65
2021/01/04 09:18:01;;;;;;;6.93;2.70;;;4.30;99.90;;;;;;5021570;28;20378;-67
2021/01/04 09:20:47;;;;;;;4.63;2.47;;;4.40;99.90;;;;;;5022161;28;20042;-66
2021/01/04 09:23:18;;;;;;;9.57;2.92;;;4.40;99.90;;;;;;5021812;28;20048;-66
2021/01/04 09:25:53;;;;;;;5.43;2.97;;;4.40;99.90;;;;;;5021262;28;20379;-66
2021/01/04 09:28:22;;;;;;;6.15;2.42;;;4.40;99.90;;;;;;5019616;28;20134;-66
2021/01/04 09:30:48;;;;;;;5.90;2.22;;;4.40;99.90;;;;;;5024753;28;20498;-66
2021/01/04 09:33:17;;;;;;;8.07;2.75;;;4.40;99.90;;;;;;5020015;28;20041;-67
2021/01/04 09:35:43;;;;;;;5.18;2.20;;;4.40;99.90;;;;;;5019437;28;20414;-65
2021/01/04 09:38:20;;;;;;;10.55;2.55;;;4.40;99.90;;;;;;5020475;28;20506;-65
2021/01/04 09:40:57;;;;;;;6.90;3.28;;;4.40;99.90;;;;;;5022583;28;20071;-67
2021/01/04 09:43:26;;;;;;;15.02;3.88;;;4.40;99.90;;;;;;5022898;28;20062;-67
2021/01/04 09:45:53;;;;;;;4.95;1.80;;;4.40;99.90;;;;;;5024666;28;20033;-66
2021/01/04 09:48:33;;;;;;;7.32;2.67;;;4.50;99.90;;;;;;5020039;28;20030;-67
2021/01/04 09:51:03;;;;;;;6.00;2.45;;;4.50;99.90;;;;;;5021490;28;20045;-66
2021/01/04 09:53:37;;;;;;;4.72;2.30;;;4.60;99.90;;;;;;5022293;28;20498;-66
2021/01/04 09:56:12;;;;;;;5.43;2.05;;;4.60;99.90;;;;;;5020871;28;20057;-66
2021/01/04 09:58:39;;;;;;;7.03;1.92;;;4.70;99.90;;;;;;5023028;28;20036;-67
2021/01/04 10:01:14;;;;;;;3.38;1.77;;;4.60;99.90;;;;;;5017544;28;20050;-67
2021/01/04 10:03:50;;;;;;;4.80;2.80;;;4.60;99.90;;;;;;5020659;28;20112;-67
2021/01/04 10:06:16;;;;;;;7.30;2.28;;;4.60;99.90;;;;;;5018979;28;20045;-67
2021/01/04 10:08:44;;;;;;;6.45;1.70;;;4.60;99.90;;;;;;5022679;28;20037;-66
2021/01/04 10:11:18;;;;;;;7.55;2.63;;;4.60;99.90;;;;;;5019081;28;20121;-66
2021/01/04 10:13:43;;;;;;;9.05;2.78;;;4.60;99.90;;;;;;5016696;28;20025;-67
2021/01/04 10:16:15;;;;;;;3.85;2.00;;;4.60;99.90;;;;;;5020274;28;20044;-66
2021/01/04 10:18:51;;;;;;;3.50;1.73;;;4.60;99.90;;;;;;5017732;28;20032;-67
2021/01/04 10:21:23;;;;;;;4.95;2.08;;;4.50;99.90;;;;;;5017530;28;20053;-64
2021/01/04 10:23:59;;;;;;;4.07;1.90;;;4.50;99.90;;;;;;5020175;28;20038;-66
2021/01/04 10:26:25;;;;;;;4.75;1.63;;;4.50;99.90;;;;;;5019341;28;20037;-67
2021/01/04 10:28:51;;;;;;;5.85;1.80;;;4.50;99.90;;;;;;5020748;28;20026;-67
2021/01/04 10:31:22;;;;;;;5.57;1.60;;;4.50;99.90;;;;;;5021144;28;20520;-66
2021/01/04 10:33:47;;;;;;;6.78;1.63;;;4.40;99.90;;;;;;5024663;28;20136;-67
2021/01/04 10:36:13;;;;;;;5.47;2.67;;;4.40;99.90;;;;;;5020038;28;20042;-67
2021/01/04 10:38:45;;;;;;;5.63;1.67;;;4.40;99.90;;;;;;5025245;28;20033;-66
2021/01/04 10:41:16;;;;;;;4.35;1.38;;;4.40;99.90;;;;;;5020280;28;20406;-66
2021/01/04 10:43:42;;;;;;;3.65;1.83;;;4.40;99.90;;;;;;5024688;28;21028;-67
2021/01/04 10:46:18;;;;;;;5.68;1.88;;;4.40;99.90;;;;;;5019994;28;20041;-67
2021/01/04 10:48:57;;;;;;;4.72;2.10;;;4.40;99.90;;;;;;5017116;28;20623;-67
2021/01/04 10:51:24;;;;;;;4.65;1.83;;;4.30;99.90;;;;;;5021498;28;20036;-67
2021/01/04 10:53:50;;;;;;;5.45;1.77;;;4.30;99.90;;;;;;5021930;28;20498;-66
2021/01/04 10:56:15;;;;;;;5.05;2.20;;;4.30;99.90;;;;;;5021431;28;20048;-66
2021/01/04 10:58:46;;;;;;;3.08;1.77;;;4.30;99.90;;;;;;5020949;28;20055;-64
2021/01/04 11:01:18;;;;;;;7.55;3.00;;;4.30;99.90;;;;;;5021700;28;20053;-67
2021/01/04 11:03:58;;;;;;;3.63;1.50;;;4.30;99.90;;;;;;5022740;28;20560;-67
2021/01/04 11:06:35;;;;;;;4.75;1.60;;;4.30;99.90;;;;;;5020155;28;20060;-66
2021/01/04 11:09:15;;;;;;;4.50;1.88;;;4.30;99.90;;;;;;5021387;28;20034;-67
2021/01/04 11:11:50;;;;;;;5.93;2.33;;;4.20;99.90;;;;;;5022483;28;20056;-66
2021/01/04 11:14:23;;;;;;;4.90;2.13;;;4.20;99.90;;;;;;5019399;28;20034;-66
2021/01/04 11:16:56;;;;;;;3.38;1.45;;;4.20;99.90;;;;;;5018644;28;20057;-67
2021/01/04 11:19:30;;;;;;;4.22;1.45;;;4.20;99.90;;;;;;5020381;28;20034;-65
2021/01/04 11:21:56;;;;;;;9.02;2.05;;;4.30;99.90;;;;;;5024670;28;20095;-67
2021/01/04 11:24:21;;;;;;;3.38;1.80;;;4.30;99.90;;;;;;5022388;28;20108;-66
2021/01/04 11:26:47;;;;;;;2.65;1.65;;;4.30;99.90;;;;;;5021226;28;20041;-67
2021/01/04 11:29:14;;;;;;;3.55;1.50;;;4.30;99.90;;;;;;5017233;28;20026;-66
2021/01/04 11:31:40;;;;;;;7.85;1.42;;;4.30;99.90;;;;;;5021433;28;20038;-67
2021/01/04 11:34:06;;;;;;;5.55;2.15;;;4.30;99.90;;;;;;5019594;28;20364;-67
2021/01/04 11:36:32;;;;;;;3.63;1.60;;;4.30;99.90;;;;;;5027375;28;20032;-67
2021/01/04 11:38:58;;;;;;;3.50;1.38;;;4.20;99.90;;;;;;5024071;28;20037;-66
2021/01/04 11:41:24;;;;;;;3.70;2.05;;;4.30;99.90;;;;;;5024403;28;20034;-66
2021/01/04 11:43:50;;;;;;;4.10;1.38;;;4.20;99.90;;;;;;5024861;28;20549;-66
2021/01/04 11:46:17;;;;;;;6.32;1.40;;;4.20;99.90;;;;;;5024192;28;20064;-66
2021/01/04 11:48:43;;;;;;;5.20;1.42;;;4.20;99.90;;;;;;5021878;28;20073;-65
2021/01/04 11:51:09;;;;;;;3.28;1.40;;;4.20;99.90;;;;;;5022955;28;20045;-67
2021/01/04 11:53:34;;;;;;;2.15;1.40;;;4.20;99.90;;;;;;5021629;28;20033;-67
2021/01/04 11:56:01;;;;;;;3.50;1.63;;;4.20;99.90;;;;;;5021151;28;20044;-66
2021/01/04 11:58:27;;;;;;;5.40;1.52;;;4.10;99.90;;;;;;5027554;28;20049;-66
2021/01/04 12:00:53;;;;;;;4.03;1.70;;;4.10;99.90;;;;;;5023234;28;20068;-67
2021/01/04 12:03:19;;;;;;;4.05;1.60;;;4.10;99.90;;;;;;5023992;28;20029;-67
2021/01/04 12:05:44;;;;;;;5.22;1.60;;;4.10;99.90;;;;;;5024001;28;20444;-67
2021/01/04 12:08:10;;;;;;;6.40;1.90;;;4.10;99.90;;;;;;5026280;28;20044;-65
2021/01/04 12:10:35;;;;;;;3.90;1.48;;;4.00;99.90;;;;;;5024773;28;20048;-67
2021/01/04 12:13:01;;;;;;;10.75;2.58;;;4.10;99.90;;;;;;5024160;28;20029;-66
2021/01/04 12:15:27;;;;;;;2.45;1.40;;;4.10;99.90;;;;;;5022073;28;20033;-66
2021/01/04 12:17:53;;;;;;;2.45;1.45;;;4.10;99.90;;;;;;5018568;28;20067;-66
2021/01/04 12:20:18;;;;;;;2.92;1.30;;;4.10;99.90;;;;;;5019220;28;20072;-67
2021/01/04 12:22:44;;;;;;;2.95;1.38;;;4.00;99.90;;;;;;5021353;28;20041;-67
2021/01/04 12:25:10;;;;;;;2.78;1.52;;;4.00;99.90;;;;;;5020730;28;20101;-66
2021/01/04 12:27:36;;;;;;;4.50;1.23;;;4.00;99.90;;;;;;5027880;28;20047;-66
2021/01/04 12:30:03;;;;;;;2.63;1.48;;;4.10;99.90;;;;;;5024884;28;20053;-65
2021/01/04 12:32:30;;;;;;;4.43;1.17;;;4.10;99.90;;;;;;5022822;28;20481;-66
2021/01/04 12:34:56;;;;;;;2.97;0.95;;;4.00;99.90;;;;;;5018783;28;20124;-66
2021/01/04 12:37:23;;;;;;;2.88;1.33;;;4.00;99.90;;;;;;5017484;28;20048;-66
2021/01/04 12:39:49;;;;;;;3.10;1.20;;;4.00;99.90;;;;;;5019713;28;20120;-67
2021/01/04 12:42:15;;;;;;;2.88;1.10;;;4.00;99.90;;;;;;5016260;28;20113;-66
2021/01/04 12:44:41;;;;;;;4.32;1.15;;;4.10;99.90;;;;;;5031716;28;20025;-67
2021/01/04 12:47:07;;;;;;;3.05;1.00;;;4.00;99.90;;;;;;5028236;28;20048;-66
2021/01/04 12:49:34;;;;;;;4.15;1.02;;;4.00;99.90;;;;;;5025344;28;20505;-68
2021/01/04 12:52:00;;;;;;;3.65;1.13;;;4.00;99.90;;;;;;5025825;28;20033;-67
2021/01/04 12:54:31;;;;;;;1.52;1.00;;;4.00;99.90;;;;;;5029578;28;20022;-66
2021/01/04 12:57:00;;;;;;;2.35;0.90;;;4.00;99.90;;;;;;5029291;28;20053;-69
2021/01/04 12:59:26;;;;;;;2.55;0.85;;;4.00;99.90;;;;;;5026485;28;20036;-67
2021/01/04 13:01:53;;;;;;;2.53;1.20;;;4.00;99.90;;;;;;5025597;28;20117;-67
2021/01/04 13:04:23;;;;;;;2.05;0.93;;;4.00;99.90;;;;;;5027988;28;20021;-67
2021/01/04 13:06:50;;;;;;;3.20;1.20;;;4.00;99.90;;;;;;5030416;28;20485;-67
2021/01/04 13:09:15;;;;;;;2.10;1.00;;;4.00;99.90;;;;;;5026600;28;20030;-66
2021/01/04 13:11:48;;;;;;;1.73;0.95;;;4.00;99.90;;;;;;5027842;28;20040;-67
2021/01/04 13:14:15;;;;;;;2.22;0.88;;;4.00;99.90;;;;;;5028953;28;20029;-65
2021/01/04 13:16:40;;;;;;;4.85;0.90;;;4.00;99.90;;;;;;5028532;28;20501;-66
2021/01/04 13:19:08;;;;;;;1.55;0.80;;;3.90;99.90;;;;;;5025596;28;20037;-66
2021/01/04 13:21:34;;;;;;;2.92;0.90;;;3.90;99.90;;;;;;5024396;28;20046;-67
2021/01/04 13:24:00;;;;;;;1.73;0.82;;;3.90;99.90;;;;;;5026256;28;20029;-67
2021/01/04 13:26:25;;;;;;;3.75;0.80;;;3.90;99.90;;;;;;5027960;28;20044;-66
2021/01/04 13:28:51;;;;;;;1.52;0.60;;;3.90;99.90;;;;;;5029633;28;20037;-67
2021/01/04 13:31:26;;;;;;;1.55;0.93;;;3.90;99.90;;;;;;5024960;28;20502;-67
2021/01/04 13:33:52;;;;;;;2.83;0.82;;;3.90;99.90;;;;;;5024814;28;20045;-66
2021/01/04 13:36:18;;;;;;;2.28;0.95;;;3.90;99.90;;;;;;5026288;28;20033;-66
2021/01/04 13:38:44;;;;;;;5.05;1.38;;;3.90;99.90;;;;;;5029981;28;20029;-67
2021/01/04 13:41:12;;;;;;;4.22;1.35;;;3.90;99.90;;;;;;5024847;28;20040;-67
2021/01/04 13:43:38;;;;;;;6.60;1.13;;;3.90;99.90;;;;;;5023666;28;20446;-67